Bhop Stats - Record Database
Name SteamID Rank Points Last Seen (DD-MM-YYYY)
medkit STEAM_1:0:150060307 5 11197 26-07-2021 13:12:55
Run ID SteamID Name Map Style Track Time Jumps Strafes Sync Points Date (DD-MM-YYYY)
41504 300120614 medkit bhop_suitsuke Normal Main 53.039s 66 97 92.63% 173.22 26-10-2019 05:17:59
41508 300120614 medkit bhop_mp_stairs_hq_csgo_b1 Sideways Main 14.500s 17 40 90.33% 35.73 26-10-2019 05:23:27
41506 300120614 medkit bhop_mp_stairs_hq_csgo_b1 Normal Main 11.867s 14 50 88.49% 69.24 26-10-2019 05:29:44
41515 300120614 medkit bhop_mp_stairs_hq_csgo_b1 Slow Motion Main 10.492s 12 77 86.57% 0.00 26-10-2019 05:35:25
41517 300120614 medkit bhop_mp_stairs_hq_csgo_b1 Low Gravity Main 12.375s 7 49 86.71% 0.00 26-10-2019 05:40:14
41521 300120614 medkit bhop_challenjour_v2 Normal Bonus 1 18.164s 14 36 91.01% 9.96 26-10-2019 06:11:12
41792 300120614 medkit bhop_speedrun_suka48 Normal Main 25.961s 35 76 92.35% 136.89 29-10-2019 10:07:43
41796 300120614 medkit bhop_speedrun_suka48 Sideways Main 01:01.344m 79 155 92.82% 77.04 29-10-2019 10:09:11
42026 300120614 medkit bhop_icecapades Normal Main 32.203s 37 70 93.70% 69.76 30-10-2019 22:08:48
42028 300120614 medkit bhop_pacman_csgo Normal Main 38.578s 52 68 91.59% 137.61 30-10-2019 22:13:38
42030 300120614 medkit bhop_ultra Normal Bonus 1 7.570s 11 27 90.89% 16.90 30-10-2019 22:21:51
42029 300120614 medkit bhop_ultra Normal Main 28.688s 28 69 91.32% 140.86 30-10-2019 22:33:22
42688 300120614 medkit bhop_durso Normal Main 10.852s 17 22 93.10% 69.56 03-11-2019 00:18:25
42699 300120614 medkit bhop_horseshit_2_rg1 Normal Main 10.875s 15 26 93.58% 55.45 03-11-2019 00:53:27
42700 300120614 medkit bhop_horseshit_2_rg1 Sideways Main 16.172s 22 42 91.29% 38.04 03-11-2019 00:54:21
42701 300120614 medkit bhop_horseshit_2_rg1 Low Gravity Main 8.273s 5 25 89.55% 0.00 03-11-2019 01:08:16
42703 300120614 medkit bhop_strafe_strafe Normal Main 42.695s 54 95 91.99% 70.18 03-11-2019 01:20:45
42705 300120614 medkit bhop_strafe_strafe Low Gravity Main 40.930s 25 103 91.05% 0.00 03-11-2019 01:27:20
42706 300120614 medkit bhop_vulcan Normal Main 28.859s 39 57 91.61% 52.67 03-11-2019 01:35:21
42935 300120614 medkit bhop_paskamappi Normal Main 32.172s 46 73 93.28% 56.14 04-11-2019 00:37:08
42936 300120614 medkit bhop_paskamappi Low Gravity Main 23.898s 16 65 90.36% 0.00 04-11-2019 00:53:35
42966 300120614 medkit bhop_uc_minecraft_beta2_csgo Low Gravity Main 45.328s 27 118 90.04% 0.00 04-11-2019 03:01:03
42968 300120614 medkit bhop_drip Normal Main 56.883s 76 98 92.70% 123.48 04-11-2019 03:15:02
42967 300120614 medkit bhop_drip Low Gravity Main 43.242s 29 97 92.39% 0.00 04-11-2019 03:17:30
42978 300120614 medkit bhop_belkapeace Sideways Main 30.211s 42 85 92.36% 38.51 04-11-2019 03:32:43
42969 300120614 medkit bhop_belkapeace Normal Main 21.672s 30 76 91.63% 66.25 04-11-2019 03:36:12
43154 300120614 medkit bhop_fyushion Normal Main 02:11.695m 158 246 90.77% 42.02 05-11-2019 01:28:43
43155 300120614 medkit bhop_fyushion Normal Bonus 1 16.109s 22 50 91.56% 11.28 05-11-2019 01:29:27
43162 300120614 medkit bhop_easy_csgo Low Gravity Main 12.977s 10 36 87.21% 0.00 05-11-2019 01:46:19
43164 300120614 medkit bhop_004_grayrun_v2 Normal Main 50.422s 26 92 91.25% 132.92 05-11-2019 02:10:08
43167 300120614 medkit bhop_nyrobs Normal Main 22.141s 34 48 92.52% 94.74 05-11-2019 02:23:39
43172 300120614 medkit bhop_nyrobs Low Gravity Main 11.461s 10 37 89.97% 0.00 05-11-2019 02:28:23
43440 300120614 medkit bhop_opl Normal Bonus 1 35.109s 44 88 91.43% 18.14 06-11-2019 14:31:32
43446 300120614 medkit bhop_pillar Normal Main 35.859s 48 70 92.56% 178.94 06-11-2019 14:49:07
43449 300120614 medkit bhop_dusttemple_beta Normal Main 14.273s 19 50 84.45% 64.02 06-11-2019 15:00:39
44102 300120614 medkit bhop_matans Low Gravity Main 27.711s 17 95 90.63% 0.00 10-11-2019 00:47:13
44104 300120614 medkit bhop_zyper Low Gravity Bonus 1 1.648s 2 10 70.85% 0.00 10-11-2019 00:54:42
44107 300120614 medkit bhop_zyper Normal Bonus 1 1.602s 3 8 76.31% 17.07 10-11-2019 00:55:27
44110 300120614 medkit bhop_zyper Normal Main 01:37.547m 119 165 93.29% 171.87 10-11-2019 00:58:21
44113 300120614 medkit bhop_zyper Low Gravity Main 29.266s 17 85 91.39% 0.00 10-11-2019 01:06:58
44559 300120614 medkit bhop_construct Normal Main 28.328s 37 47 92.22% 49.40 12-11-2019 06:59:46
44561 300120614 medkit bhop_construct Sideways Main 02:16.812m 146 277 90.81% 42.06 12-11-2019 07:06:30
44570 300120614 medkit bhop_kuiva Half-Sideways Main 19.984s 27 34 97.12% 31.07 12-11-2019 07:17:12
44569 300120614 medkit bhop_kuiva Sideways Main 21.938s 30 56 93.79% 36.46 12-11-2019 07:21:58
45614 300120614 medkit bhop_seiz Normal Main 46.523s 60 98 91.37% 114.22 17-11-2019 03:43:42
45616 300120614 medkit bhop_seiz Low Gravity Main 45.703s 30 118 90.35% 0.00 17-11-2019 03:53:18
46399 300120614 medkit bhop_primal Low Gravity Main 35.922s 21 73 92.77% 0.00 21-11-2019 09:36:58
46400 300120614 medkit bhop_primal Normal Main 56.969s 69 105 91.61% 79.03 21-11-2019 09:45:34
46826 300120614 medkit bhop_aow_whiteout Normal Main 29.891s 41 56 93.40% 66.42 24-11-2019 02:27:29
46827 300120614 medkit bhop_aow_whiteout Low Gravity Main 27.383s 19 75 91.01% 0.00 24-11-2019 02:32:47
46829 300120614 medkit bhop_aow_whiteout Slow Motion Main 24.000s 33 101 92.84% 0.00 24-11-2019 02:34:40
46831 300120614 medkit bhop_aow_whiteout Sideways Main 01:00.438m 78 111 94.95% 39.51 24-11-2019 02:38:40
46843 300120614 medkit bhop_masket Low Gravity Main 12.531s 11 41 89.62% 0.00 24-11-2019 02:56:42
47234 300120614 medkit bhop_clowntown_csgo Sideways Bonus 1 3.359s 5 10 90.90% 7.45 25-11-2019 11:36:11
48760 300120614 medkit bhop_orgrimmar Normal Main 01:01.820m 84 113 92.64% 65.87 03-12-2019 00:43:48
48761 300120614 medkit bhop_hi_im_sozu_first_fixx Normal Main 29.102s 36 49 94.32% 64.75 03-12-2019 00:49:42
49656 300120614 medkit bhop_aurum Normal Bonus 1 14.195s 19 42 91.65% 15.97 06-12-2019 22:44:37
49659 300120614 medkit bhop_aurum Low Gravity Main 35.828s 20 72 90.89% 0.00 06-12-2019 22:48:53
49655 300120614 medkit bhop_aurum Normal Main 35.609s 41 70 93.70% 227.37 06-12-2019 22:56:40
49661 300120614 medkit bhop_aurum Low Gravity Bonus 1 12.828s 9 50 83.52% 0.00 06-12-2019 22:59:40
49662 300120614 medkit bhop_internetclub Low Gravity Main 52.000s 33 146 89.93% 0.00 06-12-2019 23:02:53
49665 300120614 medkit bhop_booty Normal Main 04:21.633m 345 410 93.37% 135.40 06-12-2019 23:10:04
49774 300120614 medkit bhop_yulo Low Gravity Main 18.133s 12 48 91.58% 0.00 07-12-2019 02:22:05
49778 300120614 medkit bhop_believe Normal Main 01:29.461m 107 139 92.16% 57.04 07-12-2019 02:27:43
49780 300120614 medkit bhop_believe Low Gravity Main 01:21.195m 47 230 92.80% 0.00 07-12-2019 02:45:17
49793 300120614 medkit bhop_fast Normal Main 29.406s 40 77 88.92% 136.44 07-12-2019 02:59:53
49799 300120614 medkit bhop_crates-cartes-crates-b1 Low Gravity Main 40.422s 27 95 90.72% 0.00 07-12-2019 03:27:30
50048 300120614 medkit bhop_awful2c_csgo Low Gravity Main 45.297s 27 81 92.68% 0.00 07-12-2019 23:02:47
50050 300120614 medkit bhop_ultimatum Low Gravity Main 14.039s 11 44 90.40% 0.00 07-12-2019 23:18:32
50052 300120614 medkit bhop_speedrun_lyned2 Normal Main 23.297s 32 56 93.36% 60.37 07-12-2019 23:22:15
50051 300120614 medkit bhop_speedrun_lyned2 Low Gravity Main 20.609s 14 66 92.51% 0.00 07-12-2019 23:23:57
50240 300120614 medkit bhop_soaatana_csgo Low Gravity Main 37.570s 25 95 90.86% 0.00 08-12-2019 06:53:22
50241 300120614 medkit bhop_soaatana_csgo Normal Main 50.641s 67 107 92.72% 129.71 08-12-2019 07:04:44
50256 300120614 medkit bhop_at_night_csgo_fix Slow Motion Main 11.117s 14 67 91.62% 0.00 08-12-2019 07:28:43
50265 300120614 medkit bhop_hns_concept Slow Motion Main 4.891s 7 29 90.05% 0.00 08-12-2019 07:38:09
50260 300120614 medkit bhop_hns_concept Normal Main 6.320s 9 20 91.42% 70.08 08-12-2019 07:43:47
50275 300120614 medkit bhop_speedrun_sya Normal Main 28.375s 30 64 92.60% 126.29 08-12-2019 08:05:23
50384 300120614 medkit bhop_djump Normal Main 34.047s 38 73 93.79% 146.39 08-12-2019 22:10:46
50385 300120614 medkit bhop_djump Low Gravity Main 29.914s 15 66 92.31% 0.00 08-12-2019 22:14:26
50386 300120614 medkit bhop_ocd_v5 Low Gravity Main 37.625s 25 71 87.96% 0.00 08-12-2019 22:16:05
50388 300120614 medkit bhop_ocd_v5 Sideways Main 01:10.695m 91 144 88.76% 23.64 08-12-2019 22:21:44
50409 300120614 medkit bhop_kiwi_cwfx_csgo_b5 Normal Main 30.500s 35 76 90.20% 55.90 09-12-2019 00:46:58
50414 300120614 medkit bhop_redshit Low Gravity Main 17.930s 11 49 88.58% 0.00 09-12-2019 01:15:01
50645 300120614 medkit bhop_very_long_fur_bonus_bruh Normal Main 29.273s 40 89 94.04% 71.26 09-12-2019 23:51:20
50648 300120614 medkit bhop_greenhouse Normal Main 19.297s 26 46 94.20% 66.70 10-12-2019 00:10:59
50658 300120614 medkit bhop_greenhouse Normal Bonus 1 7.508s 10 17 92.92% 14.77 10-12-2019 00:11:24
50993 300120614 medkit bhop_pinky_csgo_fix Normal Bonus 1 9.180s 13 22 93.63% 17.10 10-12-2019 22:56:01
50999 300120614 medkit bhop_empire_csgo Normal Main 02:47.414m 211 265 90.92% 101.71 10-12-2019 23:14:33
51000 300120614 medkit bhop_icebase Normal Main 29.875s 41 94 91.57% 68.98 10-12-2019 23:26:58
51014 300120614 medkit bhop_easybhop_v1 Normal Bonus 1 9.008s 12 21 93.68% 16.76 10-12-2019 23:42:13
51013 300120614 medkit bhop_easybhop_v1 Normal Main 14.664s 20 42 92.87% 69.52 10-12-2019 23:43:25
51637 300120614 medkit bhop_forest Low Gravity Main 20.148s 12 50 93.31% 0.00 13-12-2019 00:02:12
51639 300120614 medkit bhop_cali Normal Main 43.773s 58 96 93.15% 115.82 13-12-2019 00:12:54
51640 300120614 medkit bhop_cali Low Gravity Main 42.328s 27 100 90.97% 0.00 13-12-2019 00:18:28
51698 300120614 medkit bhop_pure_betafix Low Gravity Bonus 1 6.836s 5 25 87.88% 0.00 13-12-2019 03:17:15
51702 300120614 medkit bhop_pure_betafix Low Gravity Main 52.508s 23 94 93.09% 0.00 13-12-2019 03:32:56
51708 300120614 medkit bhop_bjump Low Gravity Main 48.266s 30 99 93.36% 0.00 13-12-2019 03:46:49
51704 300120614 medkit bhop_bjump Normal Main 34.406s 43 72 92.75% 215.26 13-12-2019 03:53:38
51740 300120614 medkit bhop_shy Normal Main 01:45.078m 122 178 88.05% 61.77 13-12-2019 05:15:46
51742 300120614 medkit bhop_zbox Normal Main 37.039s 50 67 92.65% 120.16 13-12-2019 05:18:42